createdAt,value
2023-01-26T00:00:52.561Z,27.73
2023-01-26T00:03:20.089Z,16.53
2023-01-26T00:05:48.506Z,20.60
2023-01-26T00:08:16.080Z,23.53
2023-01-26T00:10:43.596Z,22.57
2023-01-26T00:13:11.132Z,29.03
2023-01-26T00:15:39.481Z,38.70
2023-01-26T00:18:07.017Z,35.03
2023-01-26T00:20:34.555Z,22.03
2023-01-26T00:23:02.124Z,35.67
2023-01-26T00:25:29.659Z,32.43
2023-01-26T00:27:57.954Z,26.50
2023-01-26T00:30:26.759Z,26.10
2023-01-26T00:32:54.279Z,25.87
2023-01-26T00:35:22.588Z,31.23
2023-01-26T00:37:50.441Z,24.20
2023-01-26T00:40:17.987Z,20.67
2023-01-26T00:42:45.523Z,24.70
2023-01-26T00:45:13.079Z,18.80
2023-01-26T00:47:40.611Z,21.23
2023-01-26T00:50:08.564Z,19.03
2023-01-26T00:52:35.946Z,20.73
2023-01-26T00:55:03.471Z,18.83
2023-01-26T00:57:31.007Z,23.85
2023-01-26T00:59:59.358Z,21.10
2023-01-26T01:02:26.899Z,20.07
2023-01-26T01:04:54.420Z,19.37
2023-01-26T01:07:23.015Z,21.83
2023-01-26T01:09:50.540Z,17.67
2023-01-26T01:12:18.835Z,16.13
2023-01-26T01:14:46.370Z,15.13
2023-01-26T01:17:14.673Z,17.17
2023-01-26T01:19:42.218Z,14.63
2023-01-26T01:22:09.780Z,13.17
2023-01-26T01:24:37.324Z,12.77
2023-01-26T01:27:04.857Z,14.07
2023-01-26T01:29:32.425Z,11.93
2023-01-26T01:32:00.070Z,11.63
2023-01-26T01:34:27.523Z,13.00
2023-01-26T01:36:55.094Z,11.40
2023-01-26T01:39:22.633Z,12.90
2023-01-26T01:41:50.161Z,12.57
2023-01-26T01:44:20.457Z,12.40
2023-01-26T01:47:03.492Z,12.97
2023-01-26T01:49:34.469Z,13.83
2023-01-26T01:52:07.729Z,13.70
2023-01-26T01:54:46.788Z,12.83
2023-01-26T01:57:16.973Z,11.07
2023-01-26T01:59:47.350Z,14.07
2023-01-26T02:02:14.993Z,12.80
2023-01-26T02:04:43.251Z,12.47
2023-01-26T02:07:10.779Z,11.50
2023-01-26T02:09:57.312Z,14.37
2023-01-26T02:12:24.827Z,10.40
2023-01-26T02:14:52.377Z,9.87
2023-01-26T02:17:19.937Z,11.03
2023-01-26T02:19:53.217Z,10.27
2023-01-26T02:22:38.862Z,11.37
2023-01-26T02:25:06.524Z,8.13
2023-01-26T02:27:34.067Z,10.03
2023-01-26T02:30:02.375Z,11.53
2023-01-26T02:32:29.897Z,7.77
2023-01-26T02:34:58.247Z,10.50
2023-01-26T02:37:25.760Z,9.10
2023-01-26T02:39:56.502Z,9.60
2023-01-26T02:42:39.296Z,9.57
2023-01-26T02:45:07.692Z,8.90
2023-01-26T02:47:35.225Z,8.73
2023-01-26T02:50:03.674Z,10.17
2023-01-26T02:52:31.180Z,11.00
2023-01-26T02:55:17.011Z,11.53
2023-01-26T02:57:44.563Z,9.57
2023-01-26T03:00:12.636Z,9.70
2023-01-26T03:02:39.855Z,11.57
2023-01-26T03:05:07.440Z,9.30
2023-01-26T03:07:34.966Z,13.30
2023-01-26T03:10:02.517Z,10.00
2023-01-26T03:12:30.041Z,11.33
2023-01-26T03:15:15.615Z,10.53
2023-01-26T03:17:43.159Z,10.67
2023-01-26T03:20:28.692Z,13.23
2023-01-26T03:23:14.095Z,11.87
2023-01-26T03:25:59.824Z,11.40
2023-01-26T03:28:27.341Z,11.00
2023-01-26T03:30:54.951Z,13.38
2023-01-26T03:33:23.368Z,13.50
2023-01-26T03:35:50.892Z,12.07
2023-01-26T03:38:19.193Z,11.77
2023-01-26T03:41:04.776Z,13.87
2023-01-26T03:43:51.325Z,15.33
2023-01-26T03:46:37.047Z,11.97
2023-01-26T03:49:22.815Z,13.45
2023-01-26T03:52:08.503Z,13.80
2023-01-26T03:54:54.858Z,16.65
2023-01-26T03:57:22.411Z,12.93
2023-01-26T03:59:49.956Z,15.77
2023-01-26T04:02:36.073Z,13.97
2023-01-26T04:05:21.977Z,14.43
2023-01-26T04:08:08.557Z,14.00
2023-01-26T04:10:36.109Z,14.17
2023-01-26T04:13:21.817Z,14.63
2023-01-26T04:16:07.539Z,14.77
2023-01-26T04:18:53.032Z,18.75
2023-01-26T04:21:27.291Z,16.13
2023-01-26T04:23:57.688Z,20.00
2023-01-26T04:26:25.193Z,18.17
2023-01-26T04:28:52.733Z,20.17
2023-01-26T04:31:20.778Z,20.77
2023-01-26T04:33:50.322Z,22.00
2023-01-26T04:36:17.863Z,20.90
2023-01-26T04:38:45.388Z,23.77
2023-01-26T04:41:12.983Z,22.13
2023-01-26T04:43:40.525Z,23.27
2023-01-26T04:46:08.163Z,24.47
2023-01-26T04:48:35.645Z,21.83
2023-01-26T04:51:03.170Z,27.07
2023-01-26T04:53:31.478Z,25.30
2023-01-26T04:55:59.071Z,31.17
2023-01-26T04:58:26.649Z,27.40
2023-01-26T05:00:56.930Z,27.60
2023-01-26T05:03:24.466Z,34.28
2023-01-26T05:05:52.008Z,28.43
2023-01-26T05:08:20.318Z,28.42
2023-01-26T05:10:47.893Z,26.87
2023-01-26T05:13:15.448Z,29.10
2023-01-26T05:15:43.032Z,26.87
2023-01-26T05:18:10.603Z,23.63
2023-01-26T05:20:38.159Z,26.67
2023-01-26T05:23:05.702Z,21.27
2023-01-26T05:25:33.291Z,23.80
2023-01-26T05:28:00.824Z,23.30
2023-01-26T05:30:28.357Z,25.13
2023-01-26T05:32:55.925Z,21.57
2023-01-26T05:35:23.471Z,20.43
2023-01-26T05:37:51.015Z,21.03
2023-01-26T05:40:18.607Z,18.23
2023-01-26T05:42:46.151Z,22.67
2023-01-26T05:45:13.712Z,20.53
2023-01-26T05:47:41.263Z,20.50
2023-01-26T05:50:09.134Z,20.57
2023-01-26T05:52:36.519Z,20.77
2023-01-26T05:55:04.067Z,21.33
2023-01-26T05:57:31.589Z,19.50
2023-01-26T05:59:59.127Z,23.73
2023-01-26T06:02:30.049Z,20.23
2023-01-26T06:04:57.516Z,24.17
2023-01-26T06:07:25.850Z,22.07
2023-01-26T06:09:53.449Z,21.27
2023-01-26T06:12:21.034Z,25.27
2023-01-26T06:14:48.513Z,21.20
2023-01-26T06:17:16.101Z,21.83
2023-01-26T06:19:43.669Z,21.13
2023-01-26T06:22:11.171Z,23.53
2023-01-26T06:24:38.776Z,22.03
2023-01-26T06:27:06.348Z,25.60
2023-01-26T06:29:33.881Z,26.93
2023-01-26T06:32:01.442Z,24.40
2023-01-26T06:34:28.996Z,23.53
2023-01-26T06:36:56.528Z,23.40
2023-01-26T06:39:24.099Z,21.47
2023-01-26T06:41:51.633Z,19.10
2023-01-26T06:44:19.159Z,18.10
2023-01-26T06:46:46.733Z,19.90
2023-01-26T06:49:14.270Z,23.57
2023-01-26T06:51:44.568Z,17.87
2023-01-26T06:54:12.133Z,17.63
2023-01-26T06:56:39.660Z,17.10
2023-01-26T06:59:07.964Z,19.27
2023-01-26T07:01:35.541Z,19.50
2023-01-26T07:04:03.053Z,17.40
2023-01-26T07:06:30.622Z,18.23
2023-01-26T07:08:58.172Z,17.90
2023-01-26T07:11:25.706Z,16.33
2023-01-26T07:13:53.258Z,15.83
2023-01-26T07:16:20.829Z,14.23
2023-01-26T07:18:48.337Z,15.07
2023-01-26T07:21:15.887Z,15.60
2023-01-26T07:23:43.494Z,16.30
2023-01-26T07:26:11.025Z,13.87
2023-01-26T07:28:40.212Z,16.47
2023-01-26T07:31:06.214Z,14.33
2023-01-26T07:33:33.684Z,13.93
2023-01-26T07:36:01.213Z,15.07
2023-01-26T07:38:29.573Z,14.97
2023-01-26T07:40:57.149Z,14.33
2023-01-26T07:43:24.685Z,15.13
2023-01-26T07:45:52.228Z,14.40
2023-01-26T07:48:19.772Z,12.87
2023-01-26T07:50:47.314Z,12.93
2023-01-26T07:53:17.535Z,15.97
2023-01-26T07:55:45.085Z,15.90
2023-01-26T07:58:13.367Z,17.87
2023-01-26T08:00:40.968Z,14.63
2023-01-26T08:03:08.557Z,14.33
2023-01-26T08:05:36.024Z,14.47
2023-01-26T08:08:04.359Z,17.70
2023-01-26T08:10:31.955Z,13.93
2023-01-26T08:12:59.410Z,14.07
2023-01-26T08:15:27.832Z,17.43
2023-01-26T08:17:55.356Z,17.43
2023-01-26T08:20:22.952Z,15.33
2023-01-26T08:22:50.557Z,14.20
2023-01-26T08:25:18.118Z,15.80
2023-01-26T08:27:45.650Z,17.87
2023-01-26T08:30:13.603Z,17.90
2023-01-26T08:32:40.774Z,13.53
2023-01-26T08:35:08.444Z,16.95
2023-01-26T08:37:36.081Z,19.37
2023-01-26T08:40:03.602Z,19.50
2023-01-26T08:42:31.891Z,14.63
2023-01-26T08:44:59.485Z,16.77
2023-01-26T08:47:27.037Z,16.37
2023-01-26T08:49:54.555Z,14.60
2023-01-26T08:52:22.124Z,18.17
2023-01-26T08:54:49.667Z,16.40
2023-01-26T08:57:17.963Z,15.63
2023-01-26T08:59:45.551Z,17.83
2023-01-26T09:02:13.145Z,17.17
2023-01-26T09:04:40.630Z,18.20
2023-01-26T09:07:08.207Z,15.43
2023-01-26T09:09:35.759Z,13.10
2023-01-26T09:12:03.308Z,17.80
2023-01-26T09:14:31.627Z,16.10
2023-01-26T09:16:59.161Z,15.60
2023-01-26T09:19:26.708Z,21.10
2023-01-26T09:21:54.289Z,19.47
2023-01-26T09:24:21.872Z,20.60
2023-01-26T09:26:49.376Z,16.17
2023-01-26T09:29:16.969Z,13.97
2023-01-26T09:31:44.614Z,18.83
2023-01-26T09:34:12.034Z,18.23
2023-01-26T09:36:41.488Z,14.77
2023-01-26T09:39:07.129Z,14.90
2023-01-26T09:41:37.211Z,18.20
2023-01-26T09:44:10.391Z,18.70
2023-01-26T09:47:01.956Z,19.20
2023-01-26T09:49:44.471Z,18.60
2023-01-26T09:52:14.938Z,15.20
2023-01-26T09:54:48.243Z,19.55
2023-01-26T09:57:15.779Z,16.97
2023-01-26T09:59:50.282Z,17.57
2023-01-26T10:02:23.896Z,15.53
2023-01-26T10:04:51.394Z,18.57
2023-01-26T10:07:18.923Z,16.63
2023-01-26T10:09:46.514Z,20.87
2023-01-26T10:12:28.746Z,22.00
2023-01-26T10:15:01.783Z,20.03
2023-01-26T10:17:32.535Z,20.00
2023-01-26T10:20:09.012Z,17.27
2023-01-26T10:22:39.253Z,20.33
2023-01-26T10:25:15.873Z,20.37
2023-01-26T10:27:44.171Z,19.20
2023-01-26T10:30:14.849Z,17.43
2023-01-26T10:32:45.148Z,17.63
2023-01-26T10:35:18.467Z,17.73
2023-01-26T10:37:45.980Z,20.23
2023-01-26T10:40:13.583Z,22.20
2023-01-26T10:42:41.116Z,21.47
2023-01-26T10:45:08.781Z,22.75
2023-01-26T10:47:36.365Z,22.40
2023-01-26T10:50:22.268Z,21.93
2023-01-26T10:52:58.512Z,20.48
2023-01-26T10:55:26.036Z,20.53
2023-01-26T10:57:53.579Z,18.73
2023-01-26T11:00:31.667Z,18.77
2023-01-26T11:03:04.461Z,17.70
2023-01-26T11:05:31.996Z,25.07
2023-01-26T11:07:59.522Z,19.07
2023-01-26T11:10:27.062Z,20.37
2023-01-26T11:13:06.691Z,18.93
2023-01-26T11:15:36.638Z,18.97
2023-01-26T11:18:04.162Z,20.93
2023-01-26T11:20:37.518Z,19.43
2023-01-26T11:23:10.683Z,20.77
2023-01-26T11:25:56.347Z,21.63
2023-01-26T11:28:33.007Z,20.17
2023-01-26T11:31:06.754Z,19.10
2023-01-26T11:33:45.674Z,16.87
2023-01-26T11:36:19.051Z,19.27
2023-01-26T11:38:49.206Z,20.67
2023-01-26T11:41:19.194Z,17.00
2023-01-26T11:43:59.724Z,19.43
2023-01-26T11:46:47.763Z,16.97
2023-01-26T11:49:15.336Z,17.80
2023-01-26T11:52:04.345Z,17.90
2023-01-26T11:54:43.782Z,21.37
2023-01-26T11:57:23.074Z,20.50
2023-01-26T12:00:02.768Z,20.33
2023-01-26T12:02:34.222Z,20.33
2023-01-26T12:05:01.678Z,19.03
2023-01-26T12:07:36.134Z,16.87
2023-01-26T12:10:03.673Z,19.47
2023-01-26T12:12:49.700Z,17.17
2023-01-26T12:15:17.254Z,18.83
2023-01-26T12:18:05.890Z,20.77
2023-01-26T12:20:39.214Z,18.33
2023-01-26T12:23:06.744Z,18.07
2023-01-26T12:25:37.504Z,20.27
2023-01-26T12:28:11.271Z,21.87
2023-01-26T12:30:42.359Z,22.57
2023-01-26T12:33:09.817Z,18.97
2023-01-26T12:35:45.921Z,21.53
2023-01-26T12:38:34.952Z,22.40
2023-01-26T12:41:14.333Z,22.97
2023-01-26T12:43:44.910Z,20.80
2023-01-26T12:46:12.508Z,21.17
2023-01-26T12:48:42.981Z,20.42
2023-01-26T12:51:12.964Z,20.33
2023-01-26T12:53:40.512Z,20.43
2023-01-26T12:56:29.721Z,21.17
2023-01-26T12:58:57.250Z,19.30
2023-01-26T13:01:24.820Z,21.40
2023-01-26T13:03:52.361Z,17.40
2023-01-26T13:06:20.700Z,21.37
2023-01-26T13:08:50.934Z,17.43
2023-01-26T13:11:39.746Z,20.40
2023-01-26T13:14:07.271Z,19.77
2023-01-26T13:16:35.573Z,18.70
2023-01-26T13:19:03.194Z,23.30
2023-01-26T13:21:39.935Z,20.50
2023-01-26T13:24:19.647Z,24.15
2023-01-26T13:26:49.934Z,22.30
2023-01-26T13:29:26.334Z,21.67
2023-01-26T13:31:56.799Z,17.87
2023-01-26T13:34:24.327Z,24.20
2023-01-26T13:36:51.940Z,20.53
2023-01-26T13:39:28.720Z,19.93
2023-01-26T13:41:56.261Z,25.17
2023-01-26T13:44:23.835Z,20.90
2023-01-26T13:46:56.823Z,23.60
2023-01-26T13:49:27.227Z,27.17
2023-01-26T13:51:54.804Z,24.30
2023-01-26T13:54:22.334Z,26.07
2023-01-26T13:57:01.901Z,26.75
2023-01-26T13:59:29.445Z,26.17
2023-01-26T14:01:57.072Z,26.17
2023-01-26T14:04:24.560Z,25.37
2023-01-26T14:07:03.982Z,27.67
2023-01-26T14:09:31.563Z,26.13
2023-01-26T14:11:59.108Z,26.60
2023-01-26T14:14:35.469Z,31.73
2023-01-26T14:17:03.099Z,24.20
2023-01-26T14:19:30.611Z,22.23
2023-01-26T14:21:58.136Z,30.58
2023-01-26T14:24:25.781Z,26.12
2023-01-26T14:26:53.278Z,25.73
2023-01-26T14:29:23.522Z,25.67
2023-01-26T14:31:51.469Z,26.40
2023-01-26T14:34:21.975Z,22.40
2023-01-26T14:36:49.485Z,23.27
2023-01-26T14:39:17.820Z,27.83
2023-01-26T14:41:45.364Z,26.90
2023-01-26T14:44:12.900Z,24.77
2023-01-26T14:47:05.596Z,23.47
2023-01-26T14:49:51.098Z,26.03
2023-01-26T14:52:18.675Z,26.00
2023-01-26T14:54:47.004Z,25.63
2023-01-26T14:57:14.512Z,24.30
2023-01-26T14:59:42.870Z,24.60
2023-01-26T15:02:19.036Z,27.77
2023-01-26T15:04:49.317Z,19.40
2023-01-26T15:07:35.248Z,25.50
2023-01-26T15:10:02.910Z,25.70
2023-01-26T15:12:34.106Z,25.40
2023-01-26T15:15:01.618Z,24.77
2023-01-26T15:17:38.256Z,27.53
2023-01-26T15:20:24.155Z,23.83
2023-01-26T15:22:52.096Z,28.05
2023-01-26T15:25:25.588Z,25.17
2023-01-26T15:27:58.532Z,23.10
2023-01-26T15:30:29.634Z,33.37
2023-01-26T15:32:57.205Z,26.77
2023-01-26T15:35:30.421Z,28.02
2023-01-26T15:38:03.988Z,31.97
2023-01-26T15:40:31.505Z,23.47
2023-01-26T15:43:05.520Z,28.43
2023-01-26T15:45:33.103Z,21.43
2023-01-26T15:48:00.637Z,25.90
2023-01-26T15:50:28.937Z,31.17
2023-01-26T15:52:56.537Z,23.33
2023-01-26T15:55:30.106Z,30.57
2023-01-26T15:57:57.619Z,25.53
2023-01-26T16:00:25.944Z,29.33
2023-01-26T16:02:53.476Z,28.00
2023-01-26T16:05:21.000Z,23.13
2023-01-26T16:07:49.372Z,27.57
2023-01-26T16:10:16.927Z,27.87
2023-01-26T16:12:44.450Z,35.03
2023-01-26T16:15:35.988Z,32.80
2023-01-26T16:18:04.248Z,27.70
2023-01-26T16:20:31.786Z,26.63
2023-01-26T16:23:00.488Z,26.60
2023-01-26T16:25:31.127Z,24.40
2023-01-26T16:27:58.667Z,27.47
2023-01-26T16:30:26.230Z,29.77
2023-01-26T16:32:53.763Z,29.83
2023-01-26T16:35:22.083Z,29.00
2023-01-26T16:37:50.045Z,25.83
2023-01-26T16:40:17.604Z,23.60
2023-01-26T16:42:45.111Z,26.07
2023-01-26T16:45:19.675Z,26.73
2023-01-26T16:47:47.210Z,26.13
2023-01-26T16:50:14.735Z,25.70
2023-01-26T16:52:42.358Z,24.87
2023-01-26T16:55:10.137Z,28.47
2023-01-26T16:57:38.195Z,30.65
2023-01-26T17:00:05.897Z,25.50
2023-01-26T17:02:33.484Z,30.23
2023-01-26T17:05:00.941Z,32.72
2023-01-26T17:07:29.331Z,33.53
2023-01-26T17:09:56.833Z,39.30
2023-01-26T17:12:24.357Z,34.83
2023-01-26T17:14:52.038Z,28.30
2023-01-26T17:17:19.458Z,28.57
2023-01-26T17:19:47.767Z,29.23
2023-01-26T17:22:15.334Z,32.03
2023-01-26T17:24:42.883Z,32.70
2023-01-26T17:27:13.097Z,30.47
2023-01-26T17:29:40.658Z,29.23
2023-01-26T17:32:08.191Z,25.47
2023-01-26T17:34:35.785Z,30.97
2023-01-26T17:37:03.347Z,24.53
2023-01-26T17:39:30.883Z,29.20
2023-01-26T17:41:58.416Z,29.87
2023-01-26T17:44:26.841Z,29.70
2023-01-26T17:46:54.401Z,28.53
2023-01-26T17:49:21.939Z,29.30
2023-01-26T17:51:49.495Z,28.63
2023-01-26T17:54:17.018Z,29.40
2023-01-26T17:56:44.563Z,24.90
2023-01-26T17:59:12.138Z,32.57
2023-01-26T18:01:39.683Z,28.53
2023-01-26T18:04:07.217Z,38.20
2023-01-26T18:06:34.799Z,33.55
2023-01-26T18:09:02.333Z,31.97
2023-01-26T18:11:29.871Z,29.97
2023-01-26T18:13:57.437Z,29.33
2023-01-26T18:16:24.980Z,29.20
2023-01-26T18:18:55.435Z,31.73
2023-01-26T18:21:23.065Z,30.40
2023-01-26T18:23:51.409Z,31.57
2023-01-26T18:26:18.922Z,32.40
2023-01-26T18:28:46.528Z,37.03
2023-01-26T18:31:14.044Z,37.73
2023-01-26T18:33:41.597Z,39.13
2023-01-26T18:36:09.175Z,34.23
2023-01-26T18:38:36.687Z,32.50
2023-01-26T18:41:04.986Z,32.77
2023-01-26T18:43:35.227Z,36.00
2023-01-26T18:46:05.466Z,29.90
2023-01-26T18:48:32.953Z,29.27
2023-01-26T18:51:00.801Z,34.37
2023-01-26T18:53:28.338Z,29.57
2023-01-26T18:56:01.902Z,29.53
2023-01-26T18:58:30.128Z,31.63
2023-01-26T19:00:57.003Z,29.73
2023-01-26T19:03:25.286Z,29.03
2023-01-26T19:05:54.230Z,30.97
2023-01-26T19:08:24.707Z,29.03
2023-01-26T19:10:52.232Z,30.40
2023-01-26T19:13:19.801Z,31.70
2023-01-26T19:15:47.331Z,34.75
2023-01-26T19:18:14.863Z,34.40
2023-01-26T19:20:42.436Z,37.45
2023-01-26T19:23:09.987Z,34.40
2023-01-26T19:25:37.597Z,31.07
2023-01-26T19:28:05.446Z,33.30
2023-01-26T19:30:33.009Z,34.67
2023-01-26T19:33:18.658Z,30.20
2023-01-26T19:35:46.211Z,31.20
2023-01-26T19:38:13.731Z,35.87
2023-01-26T19:40:42.451Z,35.80
2023-01-26T19:43:09.995Z,34.53
2023-01-26T19:45:37.570Z,30.63
2023-01-26T19:48:05.878Z,36.63
2023-01-26T19:50:33.404Z,32.57
2023-01-26T19:53:00.932Z,34.25
2023-01-26T19:55:29.271Z,34.47
2023-01-26T19:57:56.804Z,35.13
2023-01-26T20:00:24.336Z,36.38
2023-01-26T20:02:52.672Z,40.27
2023-01-26T20:05:20.210Z,34.83
2023-01-26T20:07:47.755Z,31.67
2023-01-26T20:10:15.336Z,31.23
2023-01-26T20:12:42.879Z,35.70
2023-01-26T20:15:10.645Z,31.13
2023-01-26T20:17:38.117Z,31.70
2023-01-26T20:20:05.761Z,31.80
2023-01-26T20:22:33.298Z,28.37
2023-01-26T20:25:00.879Z,29.37
2023-01-26T20:27:28.383Z,33.13
2023-01-26T20:29:55.907Z,33.83
2023-01-26T20:32:23.481Z,33.43
2023-01-26T20:34:51.012Z,36.67
2023-01-26T20:37:18.554Z,36.93
2023-01-26T20:39:47.104Z,35.43
2023-01-26T20:42:14.423Z,39.27
2023-01-26T20:44:43.453Z,29.47
2023-01-26T20:47:09.543Z,28.73
2023-01-26T20:49:37.079Z,28.50
2023-01-26T20:52:04.618Z,28.30
2023-01-26T20:54:33.071Z,25.10
2023-01-26T20:57:00.609Z,28.97
2023-01-26T20:59:28.152Z,31.43
2023-01-26T21:01:55.743Z,29.60
2023-01-26T21:04:23.271Z,27.73
2023-01-26T21:06:50.792Z,26.30
2023-01-26T21:09:18.379Z,27.57
2023-01-26T21:11:45.894Z,27.50
2023-01-26T21:14:14.210Z,27.07
2023-01-26T21:16:41.865Z,27.30
2023-01-26T21:19:09.331Z,26.07
2023-01-26T21:21:36.863Z,19.77
2023-01-26T21:24:04.487Z,20.63
2023-01-26T21:26:31.996Z,21.80
2023-01-26T21:28:59.569Z,20.80
2023-01-26T21:31:27.143Z,17.93
2023-01-26T21:33:54.737Z,21.40
2023-01-26T21:36:22.280Z,23.60
2023-01-26T21:38:49.849Z,22.37
2023-01-26T21:41:35.937Z,24.00
2023-01-26T21:44:03.499Z,21.63
2023-01-26T21:46:31.026Z,26.08
2023-01-26T21:48:58.573Z,26.30
2023-01-26T21:51:44.386Z,21.37
2023-01-26T21:54:11.982Z,21.33
2023-01-26T21:56:40.325Z,19.53
2023-01-26T21:59:08.189Z,19.00
2023-01-26T22:01:35.717Z,20.23
2023-01-26T22:04:03.308Z,23.53
2023-01-26T22:06:30.845Z,20.63
2023-01-26T22:09:01.060Z,22.13
2023-01-26T22:11:28.608Z,25.80
2023-01-26T22:13:57.842Z,22.87
2023-01-26T22:16:25.411Z,22.43
2023-01-26T22:18:52.917Z,22.53
2023-01-26T22:21:21.411Z,20.07
2023-01-26T22:23:48.980Z,17.70
2023-01-26T22:26:17.255Z,21.77
2023-01-26T22:28:44.828Z,20.93
2023-01-26T22:31:12.468Z,19.77
2023-01-26T22:33:39.903Z,21.03
2023-01-26T22:36:08.235Z,21.03
2023-01-26T22:38:35.775Z,19.80
2023-01-26T22:41:03.335Z,22.93
2023-01-26T22:43:31.200Z,19.87
2023-01-26T22:46:04.228Z,20.30
2023-01-26T22:48:31.752Z,23.67
2023-01-26T22:50:59.307Z,20.37
2023-01-26T22:53:26.844Z,21.60
2023-01-26T22:55:54.376Z,20.93
2023-01-26T22:58:21.926Z,23.93
2023-01-26T23:00:50.246Z,20.20
2023-01-26T23:03:17.763Z,20.30
2023-01-26T23:05:45.686Z,22.23
2023-01-26T23:08:13.232Z,20.50
2023-01-26T23:10:40.767Z,26.37
2023-01-26T23:13:08.341Z,22.57
2023-01-26T23:15:35.858Z,22.03
2023-01-26T23:18:03.392Z,23.10
2023-01-26T23:20:30.957Z,26.77
2023-01-26T23:22:58.482Z,27.57
2023-01-26T23:25:43.926Z,35.38
2023-01-26T23:28:12.220Z,37.97
2023-01-26T23:30:39.758Z,35.17
2023-01-26T23:33:07.299Z,38.10
2023-01-26T23:35:34.834Z,44.97
2023-01-26T23:38:02.374Z,40.15
2023-01-26T23:40:29.980Z,37.73
2023-01-26T23:43:14.294Z,40.87
2023-01-26T23:45:25.041Z,40.30
2023-01-26T23:47:52.627Z,36.67
2023-01-26T23:50:20.167Z,31.27
2023-01-26T23:52:47.702Z,33.60
2023-01-26T23:55:16.076Z,33.40
2023-01-26T23:57:43.647Z,31.03
